Time;durP1;ratioP1;P1;durP2;ratioP2;P2;SDS_P1;SDS_P2;PMS_P1;PMS_P2;Temp;Humidity;BMP_temperature;BMP_pressure;BME280_temperature;BME280_humidity;BME280_pressure;Samples;Min_cycle;Max_cycle;Signal;HPM_P1;HPM_P2
2023/06/22 00:02:20;;;;;;;13.23;10.65;;;21.00;64.90;;;;;;4951778;28;20056;-77
2023/06/22 00:05:12;;;;;;;17.00;12.33;;;20.90;65.00;;;;;;4954850;28;20135;-78
2023/06/22 00:07:39;;;;;;;16.27;12.00;;;20.90;64.50;;;;;;4951278;28;20598;-77
2023/06/22 00:10:07;;;;;;;16.98;11.80;;;20.90;65.20;;;;;;4953286;28;20483;-77
2023/06/22 00:12:34;;;;;;;15.38;12.05;;;20.80;65.40;;;;;;4935470;28;20048;-77
2023/06/22 00:15:03;;;;;;;15.23;11.60;;;20.80;65.50;;;;;;4953148;28;20067;-78
2023/06/22 00:17:30;;;;;;;15.23;12.70;;;20.80;65.80;;;;;;4952647;28;20746;-77
2023/06/22 00:19:58;;;;;;;18.52;12.38;;;20.70;65.90;;;;;;4951260;28;20255;-77
2023/06/22 00:22:28;;;;;;;16.90;11.52;;;20.70;66.00;;;;;;4952636;28;20058;-77
2023/06/22 00:24:56;;;;;;;17.63;12.27;;;20.70;65.80;;;;;;4950408;28;20063;-77
2023/06/22 00:27:23;;;;;;;15.30;12.00;;;20.60;65.80;;;;;;4953272;28;20051;-77
2023/06/22 00:29:50;;;;;;;15.90;11.30;;;20.60;65.60;;;;;;4935542;28;20047;-77
2023/06/22 00:32:19;;;;;;;15.82;11.88;;;20.60;65.60;;;;;;4951110;28;20319;-77
2023/06/22 00:34:48;;;;;;;18.30;13.00;;;20.50;65.80;;;;;;4934970;28;20160;-77
2023/06/22 00:37:15;;;;;;;17.13;12.88;;;20.50;65.90;;;;;;4948870;28;20047;-77
2023/06/22 00:39:42;;;;;;;18.95;13.43;;;20.50;66.00;;;;;;4951186;28;20052;-78
2023/06/22 00:42:09;;;;;;;16.50;12.90;;;20.50;65.90;;;;;;4949814;28;20078;-76
2023/06/22 00:44:36;;;;;;;16.15;12.32;;;20.50;65.90;;;;;;4949074;28;20264;-77
2023/06/22 00:47:04;;;;;;;18.27;13.68;;;20.50;65.90;;;;;;4949986;28;20114;-77
2023/06/22 00:49:33;;;;;;;16.35;12.88;;;20.40;65.80;;;;;;4932813;28;20052;-77
2023/06/22 00:52:00;;;;;;;15.00;11.35;;;20.30;65.90;;;;;;4950515;28;20615;-77
2023/06/22 00:54:28;;;;;;;13.77;10.17;;;20.30;65.80;;;;;;4951044;28;20058;-77
2023/06/22 00:56:57;;;;;;;14.30;10.95;;;20.30;65.90;;;;;;4950944;28;20261;-77
2023/06/22 00:59:26;;;;;;;16.88;12.30;;;20.30;65.90;;;;;;4934125;28;20209;-77
2023/06/22 01:01:53;;;;;;;17.20;12.77;;;20.30;65.90;;;;;;4950408;28;20063;-77
2023/06/22 01:04:20;;;;;;;15.70;12.48;;;20.30;65.80;;;;;;4947786;28;20512;-77
2023/06/22 01:06:57;;;;;;;15.93;11.70;;;20.20;66.00;;;;;;4934123;28;20050;-77
2023/06/22 01:09:30;;;;;;;15.32;11.95;;;20.20;66.00;;;;;;4935260;28;20261;-77
2023/06/22 01:12:03;;;;;;;15.07;11.35;;;20.10;66.10;;;;;;4949228;28;20123;-77
2023/06/22 01:14:41;;;;;;;14.70;11.55;;;20.10;66.20;;;;;;4950947;28;20142;-77
2023/06/22 01:17:10;;;;;;;14.60;12.05;;;20.10;66.40;;;;;;4950004;28;20088;-77
2023/06/22 01:19:44;;;;;;;16.53;11.83;;;20.00;66.50;;;;;;4934967;28;20103;-77
2023/06/22 01:22:16;;;;;;;15.25;11.60;;;20.00;66.70;;;;;;4950151;28;20269;-77
2023/06/22 01:24:52;;;;;;;16.17;11.95;;;20.00;66.70;;;;;;4934683;28;20063;-77
2023/06/22 01:27:34;;;;;;;13.75;11.40;;;20.00;66.70;;;;;;4934711;28;20187;-77
2023/06/22 01:30:05;;;;;;;16.75;12.63;;;20.00;66.90;;;;;;4950777;28;20055;-78
2023/06/22 01:32:38;;;;;;;16.17;12.80;;;19.90;67.10;;;;;;4950135;28;20138;-77
2023/06/22 01:35:07;;;;;;;15.10;12.43;;;19.90;67.10;;;;;;4933738;28;20351;-77
2023/06/22 01:37:36;;;;;;;16.90;13.73;;;19.90;66.90;;;;;;4950351;28;20135;-77
2023/06/22 01:40:05;;;;;;;18.38;14.40;;;19.80;66.80;;;;;;4950624;28;20462;-77
2023/06/22 01:42:32;;;;;;;18.17;13.65;;;19.80;66.90;;;;;;4950061;28;20067;-77
2023/06/22 01:45:01;;;;;;;19.13;15.20;;;19.70;67.00;;;;;;4934264;28;20048;-77
2023/06/22 01:47:29;;;;;;;17.00;14.02;;;19.70;67.10;;;;;;4934298;28;20275;-77
2023/06/22 01:49:57;;;;;;;19.27;14.90;;;19.70;67.10;;;;;;4934547;28;20055;-77
2023/06/22 01:52:24;;;;;;;18.00;14.23;;;19.70;67.20;;;;;;4948850;28;20055;-77
2023/06/22 01:54:51;;;;;;;17.08;13.30;;;19.70;67.20;;;;;;4950320;28;20044;-77
2023/06/22 01:57:20;;;;;;;17.80;14.17;;;19.70;67.10;;;;;;4949770;28;20067;-77
2023/06/22 01:59:53;;;;;;;18.92;15.18;;;19.70;67.10;;;;;;4934443;28;20332;-77
2023/06/22 02:02:26;;;;;;;19.52;14.93;;;19.60;67.10;;;;;;4933620;28;20056;-76
2023/06/22 02:04:59;;;;;;;19.77;14.85;;;19.60;67.30;;;;;;4950400;28;20547;-76
2023/06/22 02:07:33;;;;;;;19.77;14.80;;;19.60;67.50;;;;;;4933896;28;20105;-76
2023/06/22 02:10:04;;;;;;;19.37;13.57;;;19.50;67.80;;;;;;4948907;28;20138;-76
2023/06/22 02:12:33;;;;;;;23.70;16.38;;;19.50;67.80;;;;;;4933521;28;20268;-76
2023/06/22 02:15:01;;;;;;;22.00;15.60;;;19.50;68.00;;;;;;4949729;28;20047;-76
2023/06/22 02:17:33;;;;;;;15.70;12.18;;;19.40;68.30;;;;;;4933339;28;20050;-76
2023/06/22 02:20:08;;;;;;;20.73;13.95;;;19.40;68.20;;;;;;4949391;28;20048;-76
2023/06/22 02:22:36;;;;;;;19.40;13.13;;;19.30;68.30;;;;;;4932859;28;20086;-76
2023/06/22 02:25:04;;;;;;;18.42;13.40;;;19.30;68.10;;;;;;4949633;28;20382;-76
2023/06/22 02:27:31;;;;;;;15.73;12.77;;;19.30;68.00;;;;;;4949125;28;20207;-76
2023/06/22 02:29:58;;;;;;;17.33;12.32;;;19.30;68.10;;;;;;4949793;28;20055;-76
2023/06/22 02:32:25;;;;;;;18.20;13.55;;;19.30;67.90;;;;;;4948844;28;20088;-76
2023/06/22 02:34:53;;;;;;;20.17;13.63;;;19.20;68.00;;;;;;4949501;28;20048;-76
2023/06/22 02:37:24;;;;;;;18.55;14.05;;;19.20;67.90;;;;;;4949122;28;20351;-77
2023/06/22 02:39:52;;;;;;;20.48;15.30;;;19.20;67.90;;;;;;4949707;28;20617;-76
2023/06/22 02:42:21;;;;;;;21.58;15.43;;;19.20;67.80;;;;;;4948804;28;20066;-76
2023/06/22 02:44:49;;;;;;;19.02;13.80;;;19.20;67.70;;;;;;4948081;28;20498;-76
2023/06/22 02:47:17;;;;;;;17.43;13.47;;;19.20;67.60;;;;;;4933211;28;20063;-76
2023/06/22 02:49:44;;;;;;;18.33;13.23;;;19.10;67.70;;;;;;4949565;28;20252;-76
2023/06/22 02:52:17;;;;;;;16.73;12.90;;;19.10;67.70;;;;;;4932520;28;20822;-77
2023/06/22 02:54:45;;;;;;;18.98;14.27;;;19.10;67.60;;;;;;4932934;28;20075;-76
2023/06/22 02:57:14;;;;;;;21.08;13.93;;;19.10;67.50;;;;;;4933078;28;20055;-76
2023/06/22 02:59:42;;;;;;;22.40;16.03;;;19.10;67.60;;;;;;4933039;28;20115;-76
2023/06/22 03:02:12;;;;;;;26.42;18.30;;;19.00;67.70;;;;;;4947774;28;20925;-76
2023/06/22 03:04:40;;;;;;;25.55;18.08;;;19.00;67.90;;;;;;4948767;28;20058;-77
2023/06/22 03:07:07;;;;;;;24.08;17.55;;;19.00;68.30;;;;;;4948846;28;20158;-76
2023/06/22 03:09:34;;;;;;;25.80;17.25;;;19.00;68.40;;;;;;4932383;28;20050;-76
2023/06/22 03:12:03;;;;;;;23.47;17.00;;;18.90;68.60;;;;;;4932097;28;20577;-76
2023/06/22 03:14:50;;;;;;;25.95;18.17;;;18.90;68.80;;;;;;4948728;28;20392;-76
2023/06/22 03:17:18;;;;;;;24.17;17.27;;;18.90;68.50;;;;;;4948659;28;20051;-76
2023/06/22 03:19:45;;;;;;;22.15;15.52;;;18.90;68.60;;;;;;4963564;28;20768;-76
2023/06/22 03:22:13;;;;;;;19.90;15.45;;;18.90;68.60;;;;;;4949727;28;20601;-76
2023/06/22 03:24:40;;;;;;;18.33;14.10;;;18.90;68.60;;;;;;4948394;28;20054;-76
2023/06/22 03:27:09;;;;;;;14.13;11.52;;;18.80;68.60;;;;;;4949516;28;20280;-76
2023/06/22 03:29:36;;;;;;;18.48;13.98;;;18.80;68.90;;;;;;4932714;28;20048;-76
2023/06/22 03:32:04;;;;;;;17.83;13.40;;;18.80;68.90;;;;;;4932474;28;20088;-76
2023/06/22 03:34:34;;;;;;;14.75;12.00;;;18.70;69.00;;;;;;4932358;28;20082;-76
2023/06/22 03:37:01;;;;;;;13.60;11.20;;;18.70;69.00;;;;;;4947938;28;20574;-76
2023/06/22 03:39:28;;;;;;;13.05;10.55;;;18.70;69.00;;;;;;4932720;28;20343;-76
2023/06/22 03:41:56;;;;;;;11.40;9.45;;;18.60;69.00;;;;;;4932316;28;20052;-76
2023/06/22 03:44:26;;;;;;;11.38;10.10;;;18.60;69.00;;;;;;4949183;28;20062;-76
2023/06/22 03:46:53;;;;;;;10.45;9.35;;;18.50;69.00;;;;;;4948908;28;20052;-76
2023/06/22 03:49:20;;;;;;;8.93;8.03;;;18.50;68.90;;;;;;4949116;28;20123;-76
2023/06/22 03:51:47;;;;;;;10.90;8.98;;;18.40;68.80;;;;;;4949952;28;20271;-76
2023/06/22 03:54:14;;;;;;;9.85;8.68;;;18.40;69.00;;;;;;4947371;28;20102;-76
2023/06/22 03:56:41;;;;;;;10.52;8.68;;;18.30;69.00;;;;;;4950124;28;20055;-76
2023/06/22 03:59:08;;;;;;;10.60;9.50;;;18.30;69.00;;;;;;4948550;28;20075;-76
2023/06/22 04:01:37;;;;;;;12.27;10.40;;;18.20;69.10;;;;;;4932062;28;20135;-76
2023/06/22 04:04:04;;;;;;;12.50;10.88;;;18.20;69.10;;;;;;4949785;28;20280;-76
2023/06/22 04:06:31;;;;;;;12.73;10.27;;;18.20;69.10;;;;;;4948099;28;20047;-76
2023/06/22 04:08:59;;;;;;;10.00;8.85;;;18.10;69.00;;;;;;4948354;28;20063;-76
2023/06/22 04:11:26;;;;;;;11.40;8.90;;;18.10;69.10;;;;;;4947145;28;20940;-76
2023/06/22 04:13:53;;;;;;;10.03;7.67;;;18.10;69.10;;;;;;4950151;28;20059;-76
2023/06/22 04:16:20;;;;;;;8.07;7.07;;;18.00;69.30;;;;;;4948172;28;20276;-76
2023/06/22 04:18:49;;;;;;;11.35;9.20;;;18.00;69.40;;;;;;4948379;28;20059;-76
2023/06/22 04:21:16;;;;;;;10.02;9.02;;;18.00;69.50;;;;;;4947453;28;20052;-76
2023/06/22 04:24:01;;;;;;;7.63;6.80;;;18.00;69.70;;;;;;4949550;28;20523;-77
2023/06/22 04:26:28;;;;;;;9.60;8.60;;;18.00;69.40;;;;;;4928902;28;20056;-76
2023/06/22 04:28:55;;;;;;;12.73;10.38;;;18.00;69.70;;;;;;4944388;28;20284;-76
2023/06/22 04:31:31;;;;;;;15.77;11.50;;;18.00;69.80;;;;;;4947021;28;20596;-76
2023/06/22 04:34:05;;;;;;;16.98;13.55;;;18.00;70.10;;;;;;4947593;28;20083;-76
2023/06/22 04:36:37;;;;;;;17.38;12.63;;;18.00;70.60;;;;;;4947272;28;20056;-76
2023/06/22 04:39:06;;;;;;;16.63;13.07;;;17.90;70.50;;;;;;4947341;28;20131;-76
2023/06/22 04:41:41;;;;;;;20.25;14.75;;;18.00;70.70;;;;;;4948670;28;20770;-76
2023/06/22 04:44:10;;;;;;;23.52;16.67;;;17.90;70.70;;;;;;4948529;28;20057;-76
2023/06/22 04:46:38;;;;;;;26.67;18.48;;;17.90;71.00;;;;;;4947421;28;21024;-76
2023/06/22 04:49:10;;;;;;;25.33;17.48;;;18.00;71.40;;;;;;4934685;28;20063;-76
2023/06/22 04:51:41;;;;;;;24.17;17.27;;;17.90;71.40;;;;;;4950219;28;20044;-76
2023/06/22 04:54:09;;;;;;;25.77;17.98;;;18.00;71.50;;;;;;4950301;28;20279;-76
2023/06/22 04:56:37;;;;;;;24.67;18.20;;;18.00;71.30;;;;;;4950265;28;20066;-76
2023/06/22 04:59:04;;;;;;;25.13;18.40;;;18.00;71.50;;;;;;4950832;28;20154;-76
2023/06/22 05:01:32;;;;;;;27.75;18.75;;;18.00;71.40;;;;;;4950684;28;20143;-77
2023/06/22 05:04:03;;;;;;;26.13;19.13;;;18.00;72.00;;;;;;4944724;28;21049;-77
2023/06/22 05:06:32;;;;;;;16.35;10.52;;;18.00;72.10;;;;;;4948970;28;20251;-73
2023/06/22 05:08:59;;;;;;;19.00;12.43;;;18.00;72.40;;;;;;4949390;28;20051;-73
2023/06/22 05:11:27;;;;;;;17.30;12.00;;;18.00;72.20;;;;;;4951113;28;20052;-74
2023/06/22 05:13:54;;;;;;;22.88;15.65;;;18.00;72.60;;;;;;4947969;28;20048;-74
2023/06/22 05:16:24;;;;;;;25.30;16.50;;;18.00;72.60;;;;;;4949898;28;20055;-74
2023/06/22 05:18:53;;;;;;;30.40;20.50;;;18.00;72.60;;;;;;4949539;28;20595;-74
2023/06/22 05:21:24;;;;;;;30.75;21.33;;;18.10;72.80;;;;;;4981152;28;20052;-73
2023/06/22 05:23:52;;;;;;;24.63;16.17;;;18.10;73.50;;;;;;4947677;28;20059;-74
2023/06/22 05:26:20;;;;;;;35.00;21.05;;;18.10;73.70;;;;;;4980870;28;20540;-74
2023/06/22 05:28:48;;;;;;;28.90;19.40;;;18.20;74.00;;;;;;4957302;28;20059;-74
2023/06/22 05:31:15;;;;;;;32.05;22.23;;;18.20;74.50;;;;;;4979692;28;20277;-73
2023/06/22 05:33:43;;;;;;;24.83;16.27;;;18.30;74.70;;;;;;4949816;28;20074;-74
2023/06/22 05:36:12;;;;;;;33.65;22.00;;;18.30;75.00;;;;;;4948059;28;20056;-73
2023/06/22 05:38:39;;;;;;;30.42;19.73;;;18.40;74.90;;;;;;4947812;28;20056;-74
2023/06/22 05:41:08;;;;;;;28.27;19.40;;;18.40;75.00;;;;;;4949275;28;20058;-74
2023/06/22 05:43:35;;;;;;;35.60;24.30;;;18.50;75.10;;;;;;4961948;28;20296;-74
2023/06/22 05:46:03;;;;;;;29.88;18.67;;;18.50;75.00;;;;;;4949020;28;20409;-75
2023/06/22 05:48:30;;;;;;;27.75;17.75;;;18.60;75.50;;;;;;4947706;28;20490;-74
2023/06/22 05:50:58;;;;;;;31.52;21.10;;;18.70;75.80;;;;;;4949916;28;20055;-74
2023/06/22 05:53:25;;;;;;;24.93;16.00;;;18.70;75.90;;;;;;4950388;28;20298;-74
2023/06/22 05:55:52;;;;;;;25.45;16.95;;;18.70;75.70;;;;;;4945485;28;20267;-75
2023/06/22 05:58:20;;;;;;;27.38;18.33;;;18.80;76.00;;;;;;4948311;28;20841;-76
2023/06/22 06:00:47;;;;;;;30.50;19.58;;;18.80;76.30;;;;;;4946956;28;20546;-76
2023/06/22 06:03:16;;;;;;;28.48;18.92;;;18.90;76.10;;;;;;4979972;28;20595;-76
2023/06/22 06:05:44;;;;;;;23.73;15.67;;;18.90;76.40;;;;;;4944873;28;20055;-76
2023/06/22 06:08:12;;;;;;;27.10;19.25;;;19.00;76.20;;;;;;4948975;28;20295;-77
2023/06/22 06:10:39;;;;;;;25.15;17.45;;;19.00;76.30;;;;;;4947719;28;20052;-77
2023/06/22 06:13:06;;;;;;;23.08;15.40;;;19.10;76.60;;;;;;4945733;28;20060;-77
2023/06/22 06:15:35;;;;;;;22.73;14.98;;;19.10;76.50;;;;;;4946087;28;20110;-76
2023/06/22 06:18:04;;;;;;;21.63;15.53;;;19.20;76.30;;;;;;4949340;28;20058;-76
2023/06/22 06:20:32;;;;;;;24.48;16.88;;;19.20;76.20;;;;;;4947650;28;20286;-76
2023/06/22 06:22:59;;;;;;;28.25;17.83;;;19.30;76.20;;;;;;4947723;28;20083;-74
2023/06/22 06:25:26;;;;;;;23.65;15.35;;;19.30;76.30;;;;;;4948354;28;20756;-75
2023/06/22 06:27:54;;;;;;;24.85;16.33;;;19.40;76.50;;;;;;4943524;28;20054;-75
2023/06/22 06:30:22;;;;;;;24.33;15.60;;;19.40;76.50;;;;;;4947180;28;20107;-75
2023/06/22 06:32:51;;;;;;;21.90;15.20;;;19.50;76.50;;;;;;4943847;28;20291;-76
2023/06/22 06:35:18;;;;;;;21.52;13.15;;;19.50;76.10;;;;;;4943810;28;20051;-74
2023/06/22 06:37:47;;;;;;;21.15;14.90;;;19.50;76.00;;;;;;4941971;28;20052;-74
2023/06/22 06:40:15;;;;;;;18.73;12.25;;;19.50;76.30;;;;;;4942935;28;20545;-74
2023/06/22 06:42:45;;;;;;;18.97;12.60;;;19.60;76.00;;;;;;4955475;28;20134;-73
2023/06/22 06:45:13;;;;;;;17.30;11.43;;;19.70;76.10;;;;;;4945584;28;20268;-74
2023/06/22 06:47:40;;;;;;;16.58;12.05;;;19.70;76.00;;;;;;4946999;28;20138;-74
2023/06/22 06:50:10;;;;;;;17.05;10.68;;;19.70;75.90;;;;;;4947191;28;20052;-74
2023/06/22 06:52:37;;;;;;;16.42;12.00;;;19.80;76.00;;;;;;4949382;28;20051;-74
2023/06/22 06:55:08;;;;;;;14.77;10.60;;;19.90;75.80;;;;;;4946954;28;20127;-74
2023/06/22 06:57:36;;;;;;;17.25;11.52;;;19.90;75.60;;;;;;4946925;28;20288;-74
2023/06/22 07:00:11;;;;;;;17.48;11.57;;;19.90;75.40;;;;;;4953759;28;20092;-74
2023/06/22 07:02:40;;;;;;;15.73;10.15;;;20.00;75.40;;;;;;4978681;28;20055;-75
2023/06/22 07:05:08;;;;;;;14.43;9.70;;;20.00;75.60;;;;;;4948368;28;20127;-74
2023/06/22 07:07:36;;;;;;;11.20;8.30;;;20.00;75.40;;;;;;4945326;28;20053;-74
2023/06/22 07:10:03;;;;;;;11.82;8.07;;;20.10;75.50;;;;;;4948364;28;20643;-74
2023/06/22 07:12:31;;;;;;;13.10;8.73;;;20.10;75.50;;;;;;4977268;28;20059;-74
2023/06/22 07:15:03;;;;;;;11.40;6.68;;;20.20;75.20;;;;;;4948872;28;20055;-74
2023/06/22 07:17:30;;;;;;;12.43;8.20;;;20.30;74.80;;;;;;4979530;28;20052;-74
2023/06/22 07:19:57;;;;;;;10.40;6.83;;;20.30;74.70;;;;;;4956926;28;20054;-74
2023/06/22 07:22:25;;;;;;;10.10;6.78;;;20.30;74.50;;;;;;4947613;28;20808;-73
2023/06/22 07:24:52;;;;;;;10.68;6.18;;;20.40;74.20;;;;;;4947323;28;20055;-74
2023/06/22 07:27:19;;;;;;;9.40;5.43;;;20.50;74.00;;;;;;4947891;28;20522;-75
2023/06/22 07:29:47;;;;;;;9.70;6.22;;;20.50;73.80;;;;;;4942745;28;20075;-74
2023/06/22 07:32:14;;;;;;;11.93;7.00;;;20.50;73.80;;;;;;4963530;28;20058;-74
2023/06/22 07:34:41;;;;;;;12.00;7.68;;;20.50;73.30;;;;;;4979573;28;20718;-74
2023/06/22 07:37:08;;;;;;;12.07;7.85;;;20.60;73.20;;;;;;4946166;28;20590;-74
2023/06/22 07:39:37;;;;;;;9.38;6.15;;;20.60;73.00;;;;;;4946378;28;20516;-75
2023/06/22 07:42:05;;;;;;;11.52;7.32;;;20.70;72.90;;;;;;4929963;28;20533;-74
2023/06/22 07:44:32;;;;;;;10.60;7.03;;;20.70;72.90;;;;;;4946309;28;20135;-74
2023/06/22 07:46:58;;;;;;;15.70;8.95;;;20.80;72.60;;;;;;4948019;28;20742;-74
2023/06/22 07:49:25;;;;;;;12.45;8.30;;;20.80;72.60;;;;;;4949664;28;20078;-74
2023/06/22 07:51:52;;;;;;;14.18;7.75;;;20.90;72.60;;;;;;4955920;28;20523;-74
2023/06/22 07:54:19;;;;;;;12.25;7.82;;;20.90;72.40;;;;;;4953691;28;20102;-74
2023/06/22 07:56:48;;;;;;;10.40;6.63;;;21.00;72.40;;;;;;4957016;28;20059;-74
2023/06/22 07:59:15;;;;;;;11.40;6.53;;;21.00;72.20;;;;;;4950493;28;20379;-73
2023/06/22 08:01:43;;;;;;;13.65;8.88;;;21.10;72.10;;;;;;4945253;28;20079;-73
2023/06/22 08:04:10;;;;;;;10.23;6.63;;;21.10;72.00;;;;;;4944102;28;20051;-74
2023/06/22 08:06:37;;;;;;;13.30;8.30;;;21.10;71.80;;;;;;4968000;28;20707;-74
2023/06/22 08:09:04;;;;;;;12.33;7.73;;;21.10;71.70;;;;;;4952443;28;20040;-73
2023/06/22 08:11:31;;;;;;;13.25;7.25;;;21.20;71.70;;;;;;4952498;28;20283;-74
2023/06/22 08:13:59;;;;;;;11.32;7.10;;;21.30;71.50;;;;;;4956342;28;20127;-74
2023/06/22 08:16:26;;;;;;;14.18;8.63;;;21.40;71.40;;;;;;4955968;28;20057;-74
2023/06/22 08:18:53;;;;;;;14.98;8.43;;;21.40;71.30;;;;;;4953527;28;20522;-74
2023/06/22 08:21:20;;;;;;;12.87;7.73;;;21.50;71.10;;;;;;4958025;28;20079;-73
2023/06/22 08:23:47;;;;;;;11.55;7.72;;;21.50;71.10;;;;;;4960527;28;20799;-74
2023/06/22 08:26:15;;;;;;;12.07;8.57;;;21.50;71.10;;;;;;4961879;28;20533;-73
2023/06/22 08:28:42;;;;;;;10.02;6.60;;;21.60;71.00;;;;;;4936977;28;20376;-74
2023/06/22 08:31:12;;;;;;;14.40;8.75;;;21.70;70.90;;;;;;4953240;28;20540;-74
2023/06/22 08:33:39;;;;;;;12.60;8.50;;;21.70;70.80;;;;;;4958479;28;20052;-74
2023/06/22 08:36:08;;;;;;;13.15;8.70;;;21.80;70.70;;;;;;4958098;28;20312;-73
2023/06/22 08:38:35;;;;;;;12.57;8.15;;;21.90;70.40;;;;;;4954472;28;20051;-73
2023/06/22 08:41:02;;;;;;;11.80;8.18;;;21.90;70.30;;;;;;4959723;28;20106;-73
2023/06/22 08:43:29;;;;;;;13.68;8.43;;;21.90;70.40;;;;;;4960796;28;20672;-74
2023/06/22 08:45:56;;;;;;;11.87;6.57;;;22.00;70.20;;;;;;4966114;28;20047;-73
2023/06/22 08:48:24;;;;;;;9.95;7.28;;;22.00;70.20;;;;;;4957410;28;20383;-73
2023/06/22 08:50:51;;;;;;;11.57;7.75;;;22.10;70.00;;;;;;4951694;28;20047;-73
2023/06/22 08:53:18;;;;;;;13.30;8.45;;;22.10;69.90;;;;;;4956136;28;20134;-73
2023/06/22 08:55:45;;;;;;;12.02;7.32;;;22.20;69.70;;;;;;4953768;28;20055;-76
2023/06/22 08:58:12;;;;;;;12.50;8.00;;;22.20;69.60;;;;;;4951885;28;20056;-74
2023/06/22 09:00:39;;;;;;;11.95;7.38;;;22.30;69.60;;;;;;4932142;28;20294;-75
2023/06/22 09:03:06;;;;;;;10.13;6.57;;;22.40;69.30;;;;;;4949301;28;20056;-75
2023/06/22 09:05:34;;;;;;;12.13;7.15;;;22.50;69.00;;;;;;4954316;28;20060;-75
2023/06/22 09:08:01;;;;;;;11.25;7.15;;;22.50;69.00;;;;;;4953047;28;20142;-75
2023/06/22 09:10:28;;;;;;;10.67;7.20;;;22.60;68.90;;;;;;4946750;28;20052;-75
2023/06/22 09:12:55;;;;;;;10.40;6.53;;;22.60;68.70;;;;;;4963726;28;20339;-75
2023/06/22 09:15:22;;;;;;;10.60;7.10;;;22.70;68.90;;;;;;4943968;28;20109;-75
2023/06/22 09:17:49;;;;;;;11.23;6.88;;;22.80;68.60;;;;;;4948964;28;20052;-75
2023/06/22 09:20:16;;;;;;;14.02;8.27;;;22.90;68.20;;;;;;4948041;28;20496;-74
2023/06/22 09:22:46;;;;;;;10.63;7.30;;;22.90;67.80;;;;;;4947985;28;20047;-75
2023/06/22 09:25:12;;;;;;;13.40;7.65;;;23.00;67.50;;;;;;4946989;28;20283;-76
2023/06/22 09:27:39;;;;;;;11.15;7.03;;;23.00;67.50;;;;;;4964375;28;20175;-76
2023/06/22 09:30:07;;;;;;;11.13;7.10;;;23.10;67.50;;;;;;4940806;28;20638;-75
2023/06/22 09:32:34;;;;;;;9.57;7.00;;;23.10;67.40;;;;;;4947972;28;20056;-76
2023/06/22 09:35:05;;;;;;;11.77;7.73;;;23.20;67.10;;;;;;4949498;28;20060;-76
2023/06/22 09:37:32;;;;;;;13.38;7.38;;;23.30;66.80;;;;;;4941296;28;20263;-76
2023/06/22 09:40:00;;;;;;;9.50;6.40;;;23.30;66.50;;;;;;4933480;28;20446;-76
2023/06/22 09:42:27;;;;;;;10.25;7.15;;;23.40;66.50;;;;;;4948936;28;20807;-76
2023/06/22 09:44:54;;;;;;;9.77;6.45;;;23.40;66.30;;;;;;4950724;28;20062;-76
2023/06/22 09:47:21;;;;;;;9.03;6.20;;;23.50;66.20;;;;;;4980088;28;20082;-75
2023/06/22 09:49:48;;;;;;;11.68;6.60;;;23.50;66.10;;;;;;4947500;28;20286;-76
2023/06/22 09:52:15;;;;;;;13.70;7.40;;;23.60;66.10;;;;;;4945391;28;20060;-76
2023/06/22 09:54:42;;;;;;;10.48;6.05;;;23.60;65.90;;;;;;4948761;28;20465;-76
2023/06/22 09:57:10;;;;;;;10.48;6.60;;;23.70;65.40;;;;;;4946862;28;20135;-76
2023/06/22 09:59:37;;;;;;;10.27;7.03;;;23.80;65.30;;;;;;4948112;28;20059;-76
2023/06/22 10:02:04;;;;;;;8.77;5.78;;;23.80;65.00;;;;;;4935436;28;20804;-77
2023/06/22 10:04:31;;;;;;;10.50;6.18;;;23.90;64.80;;;;;;4938948;28;20058;-77
2023/06/22 10:06:58;;;;;;;9.82;6.32;;;23.90;64.70;;;;;;4950129;28;21111;-76
2023/06/22 10:09:25;;;;;;;10.13;6.10;;;24.00;64.50;;;;;;4956687;28;20515;-76
2023/06/22 10:11:52;;;;;;;8.10;5.33;;;24.00;64.50;;;;;;4931943;28;20261;-77
2023/06/22 10:14:20;;;;;;;9.18;5.80;;;24.10;64.60;;;;;;4949581;28;20742;-76
2023/06/22 10:16:47;;;;;;;8.13;5.05;;;24.20;64.30;;;;;;4949964;28;20510;-77
2023/06/22 10:19:14;;;;;;;8.18;5.10;;;24.30;64.10;;;;;;4958052;28;20051;-77
2023/06/22 10:21:41;;;;;;;9.73;5.68;;;24.40;64.30;;;;;;4944089;28;20362;-77
2023/06/22 10:24:08;;;;;;;10.93;6.80;;;24.40;64.20;;;;;;4946429;28;20047;-77
2023/06/22 10:26:35;;;;;;;10.18;6.50;;;24.50;63.50;;;;;;4947886;28;20263;-77
2023/06/22 10:29:03;;;;;;;10.65;6.05;;;24.60;62.90;;;;;;4923926;28;20063;-77
2023/06/22 10:31:31;;;;;;;9.75;6.35;;;24.60;62.80;;;;;;4947229;28;20086;-77
2023/06/22 10:33:58;;;;;;;13.82;7.05;;;24.70;63.00;;;;;;4945178;28;20048;-77
2023/06/22 10:36:25;;;;;;;26.40;7.70;;;24.80;62.90;;;;;;4943676;28;20139;-77
2023/06/22 10:38:53;;;;;;;9.50;6.10;;;24.90;62.70;;;;;;4953855;28;20302;-78
2023/06/22 10:41:20;;;;;;;9.73;5.97;;;25.00;62.80;;;;;;4944220;28;20056;-78
2023/06/22 10:43:47;;;;;;;8.07;5.53;;;25.00;62.40;;;;;;4970650;28;20076;-78
2023/06/22 10:46:14;;;;;;;8.40;5.45;;;25.10;61.60;;;;;;4948401;28;20482;-77
2023/06/22 10:48:42;;;;;;;9.53;6.23;;;25.20;61.40;;;;;;4978686;28;20076;-79
2023/06/22 10:51:09;;;;;;;10.18;6.05;;;25.20;61.10;;;;;;4943391;28;20255;-78
2023/06/22 10:53:36;;;;;;;8.32;5.72;;;25.30;60.80;;;;;;4942902;28;20063;-78
2023/06/22 10:56:03;;;;;;;10.70;5.75;;;25.40;60.70;;;;;;4949265;28;20616;-78
2023/06/22 10:58:30;;;;;;;9.43;5.50;;;25.40;60.80;;;;;;4923946;28;20147;-78
2023/06/22 11:00:56;;;;;;;19.60;7.10;;;25.50;60.60;;;;;;4943352;28;20130;-78
2023/06/22 11:03:24;;;;;;;8.13;5.55;;;25.50;60.10;;;;;;4945100;28;20264;-77
2023/06/22 11:05:52;;;;;;;9.20;5.43;;;25.60;59.80;;;;;;4945600;28;20058;-79
2023/06/22 11:08:19;;;;;;;8.98;6.43;;;25.60;59.70;;;;;;4951516;28;20544;-83
2023/06/22 11:10:46;;;;;;;12.43;6.50;;;25.60;59.70;;;;;;4949966;28;20619;-82
2023/06/22 11:13:13;;;;;;;21.10;6.07;;;25.60;59.40;;;;;;4948651;28;20060;-82
2023/06/22 11:15:40;;;;;;;7.65;4.68;;;25.60;59.50;;;;;;4947163;28;20253;-82
2023/06/22 11:18:07;;;;;;;9.65;5.30;;;25.60;59.40;;;;;;4947672;28;20051;-82
2023/06/22 11:20:38;;;;;;;8.60;5.50;;;25.70;59.30;;;;;;4964118;28;20494;-83
2023/06/22 11:23:07;;;;;;;12.25;6.28;;;25.70;59.30;;;;;;4948047;28;20078;-81
2023/06/22 11:25:35;;;;;;;9.37;5.87;;;25.80;59.30;;;;;;4981164;28;20153;-80
2023/06/22 11:28:03;;;;;;;9.07;6.03;;;25.80;59.10;;;;;;4950114;28;20276;-80
2023/06/22 11:30:31;;;;;;;7.78;5.28;;;25.80;58.70;;;;;;4945613;28;20059;-80
2023/06/22 11:32:59;;;;;;;8.10;5.70;;;25.80;58.40;;;;;;4948948;28;20079;-81
2023/06/22 11:35:27;;;;;;;8.15;5.40;;;25.80;58.00;;;;;;4945648;28;20070;-81
2023/06/22 11:37:55;;;;;;;8.77;5.20;;;25.80;57.60;;;;;;4955692;28;20052;-81
2023/06/22 11:40:24;;;;;;;8.68;5.00;;;25.80;57.60;;;;;;4951418;28;20264;-81
2023/06/22 11:42:51;;;;;;;7.47;5.40;;;25.80;57.50;;;;;;4948957;28;20851;-81
2023/06/22 11:45:20;;;;;;;8.40;6.07;;;25.90;57.50;;;;;;4949476;28;20482;-83
2023/06/22 11:47:47;;;;;;;7.95;5.50;;;25.80;57.60;;;;;;4947995;28;20531;-81
2023/06/22 11:50:15;;;;;;;8.63;5.20;;;25.80;57.30;;;;;;4950357;28;20153;-81
2023/06/22 11:52:42;;;;;;;7.72;4.75;;;25.90;57.70;;;;;;4954671;28;20272;-81
2023/06/22 11:55:09;;;;;;;9.15;5.50;;;25.90;58.00;;;;;;4957767;28;20074;-81
2023/06/22 11:57:39;;;;;;;7.78;4.82;;;26.00;57.90;;;;;;4955562;28;20055;-82
2023/06/22 12:00:16;;;;;;;9.15;5.68;;;26.00;57.60;;;;;;4951782;28;20636;-78
2023/06/22 12:02:44;;;;;;;7.77;5.30;;;26.00;57.30;;;;;;4953118;28;20184;-77
2023/06/22 12:05:12;;;;;;;7.82;5.50;;;26.00;57.30;;;;;;4968023;28;20295;-80
2023/06/22 12:07:39;;;;;;;131.57;23.77;;;26.00;57.40;;;;;;4951510;28;20052;-80
2023/06/22 12:10:07;;;;;;;65.68;13.55;;;26.00;57.50;;;;;;4949357;28;21087;-79
2023/06/22 12:12:34;;;;;;;134.52;20.75;;;26.00;57.70;;;;;;4950513;28;20151;-79
2023/06/22 12:15:03;;;;;;;14.27;5.57;;;26.10;57.90;;;;;;4945955;28;20066;-80
2023/06/22 12:17:30;;;;;;;9.75;5.10;;;26.10;58.10;;;;;;4950090;28;20407;-80
2023/06/22 12:19:58;;;;;;;31.08;8.52;;;26.10;58.30;;;;;;4950668;28;20056;-80
2023/06/22 12:22:25;;;;;;;20.23;6.38;;;26.20;58.00;;;;;;4933770;28;20076;-80
2023/06/22 12:24:52;;;;;;;10.25;5.60;;;26.20;57.40;;;;;;4951671;28;20063;-80
2023/06/22 12:27:19;;;;;;;50.27;12.03;;;26.20;57.20;;;;;;4950690;28;20055;-80
2023/06/22 12:29:47;;;;;;;32.40;9.75;;;26.20;56.90;;;;;;4947867;28;20288;-80
2023/06/22 12:32:15;;;;;;;13.05;6.45;;;26.30;56.70;;;;;;4935351;28;20059;-79
2023/06/22 12:34:43;;;;;;;8.32;5.93;;;26.30;56.40;;;;;;4950362;28;20047;-79
2023/06/22 12:37:11;;;;;;;12.52;6.10;;;26.30;56.60;;;;;;4951492;28;20054;-79
2023/06/22 12:39:38;;;;;;;8.90;5.57;;;26.30;56.70;;;;;;4951400;28;20072;-79